Time;durP1;ratioP1;P1;durP2;ratioP2;P2;SDS_P1;SDS_P2;PMS_P1;PMS_P2;Temp;Humidity;BMP_temperature;BMP_pressure;BME280_temperature;BME280_humidity;BME280_pressure;Samples;Min_cycle;Max_cycle;Signal;HPM_P1;HPM_P2
2022/01/24 00:01:49;;;;;;;9.80;6.77;;;6.40;99.90;;;;;;6196787;23;20027;-83
2022/01/24 00:27:42;;;;;;;10.43;6.25;;;6.40;99.90;;;;;;6160202;23;20021;-85
2022/01/24 00:30:08;;;;;;;10.63;6.97;;;6.40;99.90;;;;;;6160095;23;20025;-83
2022/01/24 00:32:34;;;;;;;9.70;6.55;;;6.40;99.90;;;;;;6186708;23;20021;-90
2022/01/24 00:35:00;;;;;;;10.17;7.13;;;6.40;99.90;;;;;;6160756;23;20332;-83
2022/01/24 00:37:30;;;;;;;9.70;6.83;;;6.30;99.90;;;;;;6160695;23;20033;-91
2022/01/24 00:39:56;;;;;;;10.00;7.03;;;6.30;99.90;;;;;;6186710;23;20017;-93
2022/01/24 00:42:35;;;;;;;9.40;6.70;;;6.40;99.90;;;;;;6186883;23;20017;-88
2022/01/24 00:47:45;;;;;;;10.50;6.72;;;6.30;99.90;;;;;;6186697;23;20033;-84
2022/01/24 01:18:50;;;;;;;8.38;5.97;;;6.20;99.90;;;;;;6159689;23;20111;-82
2022/01/24 01:21:16;;;;;;;9.27;5.93;;;6.20;99.90;;;;;;6159962;23;20021;-85
2022/01/24 01:23:51;;;;;;;8.70;6.05;;;6.20;99.90;;;;;;6159924;23;20248;-84
2022/01/24 02:04:59;;;;;;;8.02;5.75;;;6.00;99.90;;;;;;6185718;23;20079;-87
2022/01/24 02:07:25;;;;;;;7.97;5.37;;;6.00;99.90;;;;;;6183762;23;20013;-85
2022/01/24 02:09:51;;;;;;;8.10;5.30;;;6.00;99.90;;;;;;6185616;23;20107;-88
2022/01/24 02:12:19;;;;;;;8.87;5.73;;;6.00;99.90;;;;;;6185658;23;20027;-86
2022/01/24 02:14:54;;;;;;;8.18;5.53;;;6.00;99.90;;;;;;6184217;23;20386;-87
2022/01/24 02:18:01;;;;;;;8.55;5.88;;;6.00;99.90;;;;;;6184869;23;20025;-85
2022/01/24 02:20:44;;;;;;;8.30;5.90;;;6.00;99.90;;;;;;6159280;23;20056;-89
2022/01/24 02:25:46;;;;;;;8.65;5.63;;;5.90;99.90;;;;;;6184198;23;20025;-90
2022/01/24 02:28:15;;;;;;;9.52;5.75;;;5.90;99.90;;;;;;6159175;23;20013;-86
2022/01/24 02:31:48;;;;;;;8.20;5.88;;;5.90;99.90;;;;;;6159409;23;20028;-85
2022/01/24 02:33:44;;;;;;;11.25;6.05;;;5.90;99.90;;;;;;6195941;23;20017;-87
2022/01/24 02:36:10;;;;;;;8.18;5.38;;;5.80;99.90;;;;;;6184108;23;20020;-90
2022/01/24 02:38:47;;;;;;;7.60;5.45;;;5.80;99.90;;;;;;6134725;23;20021;-90
2022/01/24 02:49:30;;;;;;;8.30;5.60;;;5.80;99.90;;;;;;6159148;23;20127;-90
2022/01/24 02:52:08;;;;;;;8.23;5.30;;;5.80;99.90;;;;;;6155220;23;20021;-89
2022/01/24 02:54:35;;;;;;;9.73;5.47;;;5.80;99.90;;;;;;6184153;23;20031;-90
2022/01/24 02:57:02;;;;;;;8.57;5.60;;;5.80;99.90;;;;;;6184418;23;20021;-91
2022/01/24 02:59:28;;;;;;;;;;;5.80;99.90;;;;;;6184940;23;20025;-91
2022/01/24 03:01:54;;;;;;;8.38;5.45;;;5.70;99.90;;;;;;6184145;23;19924;-91
2022/01/24 03:04:20;;;;;;;9.07;5.88;;;5.80;99.90;;;;;;6184040;23;20059;-92
2022/01/24 03:06:46;;;;;;;8.63;5.60;;;5.80;99.90;;;;;;6159309;23;20052;-89
2022/01/24 03:09:12;;;;;;;8.20;5.80;;;5.80;99.90;;;;;;6159104;23;20024;-91
2022/01/24 03:14:14;;;;;;;8.45;5.63;;;5.70;99.90;;;;;;6185958;23;20056;-88
2022/01/24 03:16:41;;;;;;;8.50;5.50;;;5.70;99.90;;;;;;6186073;23;20025;-91
2022/01/24 03:19:07;;;;;;;8.38;5.45;;;5.70;99.90;;;;;;6161055;23;20020;-88
2022/01/24 03:21:33;;;;;;;9.67;5.97;;;5.70;99.90;;;;;;6161082;23;20443;-91
2022/01/24 03:23:58;;;;;;;9.90;5.50;;;5.70;99.90;;;;;;6185735;23;20032;-88
2022/01/24 03:26:24;;;;;;;9.60;5.97;;;5.70;99.90;;;;;;6160870;23;20332;-89
2022/01/24 03:28:50;;;;;;;8.17;5.70;;;5.70;99.90;;;;;;6185777;23;20032;-90
2022/01/24 03:31:15;;;;;;;8.93;5.80;;;5.70;99.90;;;;;;6185418;23;20545;-88
2022/01/24 03:33:41;;;;;;;8.83;5.83;;;5.70;99.90;;;;;;6160765;23;20051;-89
2022/01/24 03:36:07;;;;;;;9.33;6.07;;;5.70;99.90;;;;;;6185150;23;20021;-87
2022/01/24 03:38:32;;;;;;;10.90;6.70;;;5.70;99.90;;;;;;6160890;23;20044;-87
2022/01/24 03:40:58;;;;;;;8.20;5.97;;;5.70;99.90;;;;;;6185492;23;20063;-90
2022/01/24 03:43:24;;;;;;;8.13;5.80;;;5.70;99.90;;;;;;6185365;23;20021;-89
2022/01/24 03:46:11;;;;;;;9.43;6.40;;;5.70;99.90;;;;;;6185615;23;20351;-90
2022/01/24 03:51:09;;;;;;;8.40;5.78;;;5.70;99.90;;;;;;6185723;23;20028;-88
2022/01/24 03:53:35;;;;;;;8.95;5.85;;;5.60;99.90;;;;;;6187116;23;20092;-87
2022/01/24 03:56:01;;;;;;;9.40;6.33;;;5.60;99.90;;;;;;6185779;23;20512;-88
2022/01/24 03:58:27;;;;;;;9.75;6.43;;;5.70;99.90;;;;;;6185357;23;20458;-85
2022/01/24 04:00:55;;;;;;;11.43;6.43;;;5.60;99.90;;;;;;6135813;23;20075;-87
2022/01/24 04:03:21;;;;;;;10.10;6.25;;;5.70;99.90;;;;;;6184769;23;20053;-86
2022/01/24 04:05:47;;;;;;;10.23;6.75;;;5.60;99.90;;;;;;6185537;23;20083;-86
2022/01/24 04:08:13;;;;;;;9.32;6.60;;;5.60;99.90;;;;;;6185149;23;20075;-85
2022/01/24 04:10:42;;;;;;;9.23;6.28;;;5.60;99.90;;;;;;6186667;23;20028;-87
2022/01/24 04:13:22;;;;;;;9.77;6.53;;;5.60;99.90;;;;;;6185602;23;20021;-86
2022/01/24 04:18:43;;;;;;;10.00;6.28;;;5.60;99.90;;;;;;6185108;23;20355;-87
2022/01/24 04:23:58;;;;;;;9.02;6.40;;;5.60;99.90;;;;;;6184764;23;20529;-85
2022/01/24 04:26:24;;;;;;;10.63;6.65;;;5.60;99.90;;;;;;6186916;23;20129;-86
2022/01/24 04:28:50;;;;;;;9.60;6.32;;;5.60;99.90;;;;;;6184561;23;20029;-85
2022/01/24 04:31:17;;;;;;;9.23;6.47;;;5.70;99.90;;;;;;6185031;23;20028;-85
2022/01/24 04:33:42;;;;;;;10.05;6.47;;;5.60;99.90;;;;;;6179746;23;20469;-87
2022/01/24 04:36:08;;;;;;;12.27;7.70;;;5.70;99.90;;;;;;6184903;23;20020;-85
2022/01/24 04:38:34;;;;;;;10.73;7.20;;;5.60;99.90;;;;;;6184464;23;20036;-86
2022/01/24 04:41:05;;;;;;;10.68;7.30;;;5.60;99.90;;;;;;6186348;23;20024;-85
2022/01/24 04:43:48;;;;;;;12.40;8.05;;;5.60;99.90;;;;;;6159932;23;20021;-85
2022/01/24 04:46:30;;;;;;;11.15;7.10;;;5.60;99.90;;;;;;6184275;23;20052;-86
2022/01/24 04:51:55;;;;;;;11.18;7.53;;;5.60;99.90;;;;;;6186302;23;20494;-84
2022/01/24 04:57:02;;;;;;;9.68;7.53;;;5.70;99.90;;;;;;6159780;23;20463;-85
2022/01/24 04:59:28;;;;;;;10.50;7.50;;;5.60;99.90;;;;;;6184346;23;20048;-83
2022/01/24 05:01:53;;;;;;;12.13;7.70;;;5.60;99.90;;;;;;6184685;23;20025;-83
2022/01/24 05:04:19;;;;;;;12.47;8.87;;;5.70;99.90;;;;;;6184417;23;20021;-85
2022/01/24 05:06:45;;;;;;;11.63;7.93;;;5.70;99.90;;;;;;6184396;23;20057;-86
2022/01/24 05:09:11;;;;;;;13.73;8.97;;;5.70;99.90;;;;;;6159864;23;20028;-86
2022/01/24 05:24:47;;;;;;;13.30;8.68;;;5.60;99.90;;;;;;6185871;23;20025;-84
2022/01/24 05:27:13;;;;;;;12.60;9.27;;;5.60;99.90;;;;;;6184308;23;20029;-84
2022/01/24 05:29:38;;;;;;;14.60;10.43;;;5.60;99.90;;;;;;6184097;23;20017;-84
2022/01/24 05:32:08;;;;;;;12.93;9.75;;;5.60;99.90;;;;;;6185804;23;20092;-85
2022/01/24 05:34:35;;;;;;;14.80;10.43;;;5.60;99.90;;;;;;6184217;23;20025;-83
2022/01/24 05:37:00;;;;;;;15.07;10.27;;;5.60;99.90;;;;;;6183794;23;20064;-84
2022/01/24 05:39:26;;;;;;;14.50;10.07;;;5.60;99.90;;;;;;6185972;23;20021;-84
2022/01/24 05:41:52;;;;;;;17.03;10.40;;;5.60;99.90;;;;;;6184197;23;20447;-87
2022/01/24 05:44:18;;;;;;;16.80;10.83;;;5.60;99.90;;;;;;6183308;23;20027;-84
2022/01/24 05:46:44;;;;;;;16.17;10.45;;;5.60;99.90;;;;;;6159229;23;20073;-85
2022/01/24 05:49:09;;;;;;;15.03;11.00;;;5.60;99.90;;;;;;6159273;23;20053;-86
2022/01/24 05:51:35;;;;;;;17.83;10.63;;;5.60;99.90;;;;;;6186261;23;20078;-89
2022/01/24 05:54:01;;;;;;;15.20;10.87;;;5.60;99.90;;;;;;6160317;23;20091;-88
2022/01/24 05:56:27;;;;;;;15.70;11.35;;;5.60;99.90;;;;;;6162674;23;20021;-86
2022/01/24 05:58:53;;;;;;;15.40;11.07;;;5.60;99.90;;;;;;6136554;23;20359;-86
2022/01/24 06:01:18;;;;;;;19.97;12.10;;;5.60;99.90;;;;;;6136389;23;20331;-88
2022/01/24 06:03:44;;;;;;;17.03;11.70;;;5.60;99.90;;;;;;6137024;23;20097;-88
2022/01/24 06:06:10;;;;;;;16.33;11.30;;;5.50;99.90;;;;;;6132816;23;20341;-89
2022/01/24 06:08:36;;;;;;;16.47;11.47;;;5.60;99.90;;;;;;6131591;23;20092;-94
2022/01/24 06:11:10;;;;;;;17.30;12.30;;;5.50;99.90;;;;;;6130581;23;20025;-90
2022/01/24 06:13:36;;;;;;;17.20;11.77;;;5.60;99.90;;;;;;6106088;23;20033;-93
2022/01/24 06:16:02;;;;;;;20.40;11.43;;;5.60;99.90;;;;;;6130409;23;20021;-94
2022/01/24 06:18:28;;;;;;;17.97;11.93;;;5.60;99.90;;;;;;6159107;23;20049;-94
2022/01/24 06:20:53;;;;;;;18.33;12.27;;;5.60;99.90;;;;;;6130388;23;20160;-90
2022/01/24 06:23:20;;;;;;;19.37;11.80;;;5.60;99.90;;;;;;6157489;23;20021;-93
2022/01/24 06:25:52;;;;;;;;;;;5.60;99.90;;;;;;6157099;23;20486;-92
2022/01/24 06:28:42;;;;;;;18.17;11.35;;;5.50;99.90;;;;;;6131565;23;19920;-87
2022/01/24 06:31:08;;;;;;;18.20;12.02;;;5.60;99.90;;;;;;6113036;23;20026;-86
2022/01/24 06:33:38;;;;;;;17.90;12.57;;;5.60;99.90;;;;;;6142901;23;20028;-86
2022/01/24 06:36:05;;;;;;;18.98;12.52;;;5.60;99.90;;;;;;6142621;23;20884;-89
2022/01/24 06:38:30;;;;;;;18.65;13.15;;;5.60;99.90;;;;;;6108961;23;20025;-89
2022/01/24 06:40:56;;;;;;;20.37;13.47;;;5.50;99.90;;;;;;6130380;23;20024;-95
2022/01/24 06:43:22;;;;;;;19.73;13.65;;;5.60;99.90;;;;;;6113632;23;20045;-92
2022/01/24 06:46:37;;;;;;;20.93;13.17;;;5.60;99.90;;;;;;6105851;23;20029;-89
2022/01/24 06:49:03;;;;;;;18.88;13.32;;;5.60;99.90;;;;;;6108273;23;20060;-82
2022/01/24 06:51:29;;;;;;;18.90;12.50;;;5.60;99.90;;;;;;6106896;23;20026;-84
2022/01/24 06:53:55;;;;;;;21.33;14.73;;;5.60;99.90;;;;;;6130878;23;20032;-86
2022/01/24 06:56:20;;;;;;;20.95;14.23;;;5.60;99.90;;;;;;6105175;23;20021;-86
2022/01/24 06:58:46;;;;;;;20.23;13.23;;;5.60;99.90;;;;;;6129413;23;20032;-88
2022/01/24 07:01:12;;;;;;;22.42;14.43;;;5.60;99.90;;;;;;6105068;23;20021;-85
2022/01/24 07:03:38;;;;;;;20.48;13.65;;;5.60;99.90;;;;;;6111775;23;20017;-89
2022/01/24 07:06:04;;;;;;;20.17;14.00;;;5.60;99.90;;;;;;6161362;23;20021;-90
2022/01/24 07:08:30;;;;;;;19.20;13.40;;;5.60;99.90;;;;;;6136825;23;20052;-90
2022/01/24 07:10:55;;;;;;;19.13;13.50;;;5.60;99.90;;;;;;6161045;23;20482;-86
2022/01/24 07:13:21;;;;;;;20.00;13.20;;;5.60;99.90;;;;;;6161138;23;20021;-87
2022/01/24 07:15:54;;;;;;;21.42;13.18;;;5.60;99.90;;;;;;6135578;23;20462;-87
2022/01/24 07:20:57;;;;;;;17.80;13.02;;;5.60;99.90;;;;;;6185183;23;20336;-83
2022/01/24 07:23:23;;;;;;;18.85;13.20;;;5.60;99.90;;;;;;6185178;23;20069;-84
2022/01/24 07:25:49;;;;;;;19.97;14.47;;;5.60;99.90;;;;;;6186676;23;20096;-86
2022/01/24 07:28:15;;;;;;;18.53;12.47;;;5.60;99.90;;;;;;6187012;23;20028;-83
2022/01/24 07:30:42;;;;;;;17.73;12.38;;;5.60;99.90;;;;;;6187223;23;20493;-86
2022/01/24 07:33:40;;;;;;;20.20;12.57;;;5.70;99.90;;;;;;6185939;23;20451;-87
2022/01/24 07:36:29;;;;;;;19.20;12.88;;;5.70;99.90;;;;;;6186393;23;20021;-85
2022/01/24 07:39:18;;;;;;;18.23;12.13;;;5.70;99.90;;;;;;6188620;23;20088;-90
2022/01/24 07:41:47;;;;;;;;;;;5.70;99.90;;;;;;6189808;23;20025;-90
2022/01/24 07:44:14;;;;;;;20.30;12.75;;;5.70;99.90;;;;;;6189466;23;19916;-90
2022/01/24 07:46:49;;;;;;;19.15;12.70;;;5.70;99.90;;;;;;6164396;23;20021;-89
2022/01/24 07:49:16;;;;;;;19.23;12.75;;;5.70;99.90;;;;;;6188905;23;20052;-91
2022/01/24 07:51:42;;;;;;;19.17;13.07;;;5.70;99.90;;;;;;6188719;23;20068;-92
2022/01/24 07:54:29;;;;;;;18.85;12.65;;;5.70;99.90;;;;;;6189878;23;20028;-89
2022/01/24 07:56:55;;;;;;;18.17;12.35;;;5.70;99.90;;;;;;6188871;23;20025;-90
2022/01/24 07:59:23;;;;;;;19.10;12.90;;;5.80;99.90;;;;;;6188848;23;20047;-91
2022/01/24 08:12:18;;;;;;;18.65;11.15;;;5.80;99.90;;;;;;6181213;23;20037;-88
2022/01/24 08:15:10;;;;;;;;;;;;;;;;;;;;;
2022/01/24 08:17:46;;;;;;;18.40;12.02;;;5.80;99.90;;;;;;6130627;23;20018;-92
2022/01/24 08:20:26;;;;;;;17.48;12.32;;;5.80;99.90;;;;;;6133070;23;20057;-91
2022/01/24 08:25:27;;;;;;;18.88;12.50;;;5.80;99.90;;;;;;6174280;23;20021;-84
2022/01/24 08:27:54;;;;;;;17.90;12.40;;;5.80;99.90;;;;;;6135679;23;20021;-87
2022/01/24 08:30:22;;;;;;;19.65;12.52;;;5.80;99.90;;;;;;6159985;23;20028;-87
2022/01/24 08:32:48;;;;;;;18.55;11.02;;;5.80;99.90;;;;;;6159834;23;20025;-87
2022/01/24 08:35:16;;;;;;;17.27;11.77;;;5.80;99.90;;;;;;6135254;23;20017;-88
2022/01/24 08:37:42;;;;;;;18.00;11.40;;;5.80;99.90;;;;;;6159755;23;20443;-87
2022/01/24 08:40:10;;;;;;;18.15;12.73;;;5.80;99.90;;;;;;6135398;23;20104;-86
2022/01/24 08:42:43;;;;;;;20.27;12.27;;;5.80;99.90;;;;;;6135611;23;20017;-89
2022/01/24 08:47:53;;;;;;;18.30;12.25;;;5.80;99.90;;;;;;6159957;23;20056;-90
2022/01/24 08:50:25;;;;;;;15.47;10.30;;;5.80;99.90;;;;;;6184624;23;20021;-89
2022/01/24 08:52:52;;;;;;;15.48;9.90;;;5.80;99.90;;;;;;6159758;23;20444;-88
2022/01/24 08:55:18;;;;;;;;;;;5.80;99.90;;;;;;6160465;23;20454;-88
2022/01/24 08:57:43;;;;;;;15.23;10.57;;;5.80;99.90;;;;;;6135106;23;19931;-88
2022/01/24 09:00:10;;;;;;;14.63;10.40;;;5.80;99.90;;;;;;6159369;23;20028;-89
2022/01/24 09:02:36;;;;;;;14.43;9.93;;;5.80;99.90;;;;;;6159402;23;20109;-89
2022/01/24 09:05:02;;;;;;;13.20;9.50;;;5.80;99.90;;;;;;6159814;23;20056;-87
2022/01/24 09:07:30;;;;;;;14.27;9.48;;;5.80;99.90;;;;;;6186158;23;20021;-87
2022/01/24 09:09:57;;;;;;;14.10;10.00;;;5.80;99.90;;;;;;6159092;23;20025;-87
2022/01/24 09:12:23;;;;;;;15.00;10.80;;;5.80;99.90;;;;;;6159265;23;20112;-85
2022/01/24 09:14:48;;;;;;;17.37;10.90;;;5.90;99.90;;;;;;6186101;23;20052;-90
2022/01/24 09:17:15;;;;;;;19.40;11.93;;;5.80;99.90;;;;;;6159498;23;20339;-85
2022/01/24 09:19:41;;;;;;;;;;;5.90;99.90;;;;;;6159990;23;20107;-85
2022/01/24 09:22:07;;;;;;;15.52;10.23;;;5.80;99.90;;;;;;6185902;23;19971;-85
2022/01/24 09:24:33;;;;;;;15.83;10.70;;;5.80;99.90;;;;;;6159364;23;20028;-87
2022/01/24 09:27:00;;;;;;;17.10;12.38;;;5.90;99.90;;;;;;6159549;23;20458;-90
2022/01/24 09:29:26;;;;;;;18.60;13.25;;;5.80;99.90;;;;;;6185875;23;20054;-87
2022/01/24 09:31:52;;;;;;;20.40;13.93;;;5.80;99.90;;;;;;6159738;23;20048;-88
2022/01/24 09:34:20;;;;;;;19.95;13.60;;;5.80;99.90;;;;;;6159477;23;20095;-87
2022/01/24 09:36:47;;;;;;;17.65;12.55;;;5.80;99.90;;;;;;6159413;23;20025;-88
2022/01/24 09:39:16;;;;;;;16.02;10.73;;;5.90;99.90;;;;;;6159445;23;20049;-87
2022/01/24 09:41:43;;;;;;;17.83;11.50;;;5.80;99.90;;;;;;6159937;23;20339;-88
2022/01/24 09:44:09;;;;;;;17.02;11.57;;;5.80;99.90;;;;;;6159430;23;20057;-87
2022/01/24 09:46:36;;;;;;;20.07;12.80;;;5.80;99.90;;;;;;6159375;23;20024;-87
2022/01/24 09:49:03;;;;;;;18.52;12.98;;;5.80;99.90;;;;;;6185596;23;20027;-88
2022/01/24 09:51:29;;;;;;;20.38;13.30;;;5.90;99.90;;;;;;6185743;23;20032;-85
2022/01/24 09:53:55;;;;;;;18.40;13.47;;;5.90;99.90;;;;;;6185824;23;20017;-85
2022/01/24 09:56:21;;;;;;;19.05;13.25;;;5.90;99.90;;;;;;6185418;23;20032;-84
2022/01/24 09:58:47;;;;;;;19.30;13.50;;;5.90;99.90;;;;;;6159202;23;20013;-85
2022/01/24 10:01:14;;;;;;;20.63;14.17;;;5.90;99.90;;;;;;6159138;23;20029;-85
2022/01/24 10:04:00;;;;;;;25.02;16.45;;;5.90;99.90;;;;;;6185517;23;20462;-85
2022/01/24 10:06:25;;;;;;;26.20;17.17;;;5.90;99.90;;;;;;6159032;23;20080;-91
2022/01/24 10:08:51;;;;;;;26.13;17.30;;;5.90;99.90;;;;;;6159207;23;20025;-87
2022/01/24 10:11:18;;;;;;;26.40;18.20;;;5.90;99.90;;;;;;6159251;23;20017;-87
2022/01/24 10:16:36;;;;;;;27.00;18.02;;;5.90;99.90;;;;;;6159043;23;20104;-88
2022/01/24 10:19:22;;;;;;;29.05;18.75;;;5.90;99.90;;;;;;6159313;23;20064;-88
2022/01/24 10:22:03;;;;;;;26.85;18.27;;;5.90;99.90;;;;;;6158791;23;20525;-86
2022/01/24 10:24:38;;;;;;;25.85;17.63;;;5.90;99.90;;;;;;6185510;23;20034;-87
2022/01/24 10:27:28;;;;;;;25.92;17.15;;;6.00;99.90;;;;;;6159296;23;20029;-92
2022/01/24 10:29:58;;;;;;;27.88;18.85;;;6.00;99.90;;;;;;6159069;23;20056;-92
2022/01/24 10:32:33;;;;;;;32.75;20.92;;;6.00;99.90;;;;;;6159189;23;20371;-87
2022/01/24 10:35:19;;;;;;;34.10;21.95;;;6.00;99.90;;;;;;6158661;23;20469;-88
2022/01/24 10:37:48;;;;;;;34.08;22.55;;;6.00;99.90;;;;;;6119693;23;20469;-91
2022/01/24 10:40:45;;;;;;;36.78;23.98;;;6.00;99.90;;;;;;6160330;23;20451;-87
2022/01/24 10:43:19;;;;;;;38.78;23.77;;;6.00;99.90;;;;;;6160013;23;20075;-88
2022/01/24 10:45:46;;;;;;;35.90;23.48;;;6.00;99.90;;;;;;6160842;23;20031;-88
2022/01/24 10:48:13;;;;;;;37.28;23.88;;;6.00;99.90;;;;;;6159213;23;20096;-84
2022/01/24 10:50:38;;;;;;;;;;;6.00;99.90;;;;;;6134736;23;20024;-91
2022/01/24 10:53:14;;;;;;;37.00;23.35;;;6.00;99.90;;;;;;6159173;23;19987;-87
2022/01/24 10:55:42;;;;;;;38.83;23.63;;;6.00;99.90;;;;;;6159047;23;20080;-88
2022/01/24 10:58:13;;;;;;;37.15;24.25;;;6.00;99.90;;;;;;6158753;23;20025;-87
2022/01/24 11:00:40;;;;;;;40.05;25.48;;;6.00;99.90;;;;;;6158834;23;20451;-88
2022/01/24 11:03:08;;;;;;;41.70;26.98;;;6.00;99.90;;;;;;6134608;23;20103;-87
2022/01/24 11:05:36;;;;;;;41.38;25.90;;;6.00;99.90;;;;;;6185131;23;20354;-88
2022/01/24 11:08:14;;;;;;;45.55;28.17;;;6.00;99.90;;;;;;6158624;23;20013;-87
2022/01/24 11:10:40;;;;;;;;;;;6.00;99.90;;;;;;6159372;23;20067;-91
2022/01/24 11:13:07;;;;;;;43.20;26.13;;;6.00;99.90;;;;;;6158877;23;19967;-87
2022/01/24 11:15:34;;;;;;;38.45;24.67;;;6.00;99.90;;;;;;6134325;23;20028;-87
2022/01/24 11:18:01;;;;;;;41.00;25.60;;;5.90;99.90;;;;;;6158433;23;20152;-87
2022/01/24 11:20:31;;;;;;;;;;;6.00;99.90;;;;;;6159141;23;20577;-88
2022/01/24 11:23:01;;;;;;;38.03;24.33;;;6.00;99.90;;;;;;6134225;23;19995;-90
2022/01/24 11:25:35;;;;;;;36.80;24.20;;;6.00;99.90;;;;;;6153751;23;20150;-87
2022/01/24 11:28:01;;;;;;;38.20;25.02;;;6.00;99.90;;;;;;6153872;23;20498;-87
2022/01/24 11:30:38;;;;;;;36.60;24.85;;;6.00;99.90;;;;;;6153719;23;20489;-87
2022/01/24 11:33:10;;;;;;;43.80;27.48;;;6.00;99.90;;;;;;6153772;23;20022;-86
2022/01/24 11:35:50;;;;;;;42.25;26.17;;;6.00;99.90;;;;;;6155400;23;20091;-86
2022/01/24 11:38:39;;;;;;;44.92;27.48;;;6.00;99.90;;;;;;6155137;23;20025;-88
2022/01/24 11:41:26;;;;;;;43.80;27.50;;;6.00;99.90;;;;;;6155269;23;20032;-87
2022/01/24 11:44:06;;;;;;;41.90;26.60;;;6.00;99.90;;;;;;6131015;23;20096;-87
2022/01/24 11:46:42;;;;;;;41.50;26.60;;;6.00;99.90;;;;;;6130670;23;20022;-87
2022/01/24 11:49:32;;;;;;;43.50;26.52;;;6.00;99.90;;;;;;6155374;23;20027;-87
2022/01/24 11:52:13;;;;;;;45.25;28.80;;;6.00;99.90;;;;;;6155331;23;20072;-86
2022/01/24 11:54:53;;;;;;;50.45;30.48;;;6.00;99.90;;;;;;6155002;23;20410;-88
2022/01/24 11:57:49;;;;;;;41.45;26.95;;;6.00;99.90;;;;;;6155309;23;20025;-86
2022/01/24 12:00:22;;;;;;;38.72;26.13;;;6.00;99.90;;;;;;6152723;23;20104;-86
2022/01/24 12:02:54;;;;;;;41.40;25.75;;;6.00;99.90;;;;;;6155302;23;20018;-87
2022/01/24 12:05:20;;;;;;;38.72;25.13;;;6.00;99.90;;;;;;6156820;23;20021;-87
2022/01/24 12:07:55;;;;;;;39.90;24.73;;;6.00;99.90;;;;;;6154883;23;20363;-87
2022/01/24 12:10:23;;;;;;;35.38;23.63;;;6.00;99.90;;;;;;6154445;23;20031;-87
2022/01/24 12:13:09;;;;;;;39.15;24.02;;;6.00;99.90;;;;;;6155147;23;20034;-87
2022/01/24 12:15:38;;;;;;;39.33;24.40;;;6.00;99.90;;;;;;6156906;23;20079;-86
2022/01/24 12:18:04;;;;;;;40.00;25.98;;;6.00;99.90;;;;;;6155128;23;20029;-86
2022/01/24 12:20:30;;;;;;;41.72;26.13;;;6.00;99.90;;;;;;6154447;23;20025;-87
2022/01/24 12:23:19;;;;;;;36.47;23.07;;;6.00;99.90;;;;;;6130461;23;20025;-87
2022/01/24 12:25:57;;;;;;;35.63;22.40;;;6.00;99.90;;;;;;6130045;23;20036;-86
2022/01/24 12:28:29;;;;;;;35.28;22.58;;;6.00;99.90;;;;;;6130347;23;20170;-86
2022/01/24 12:31:03;;;;;;;36.50;24.02;;;6.00;99.90;;;;;;6155014;23;20018;-90
2022/01/24 12:33:29;;;;;;;35.17;22.63;;;6.00;99.90;;;;;;6156588;23;20026;-86
2022/01/24 12:35:55;;;;;;;36.77;23.90;;;6.00;99.90;;;;;;6154945;23;20428;-91
2022/01/24 12:38:21;;;;;;;36.43;23.37;;;6.10;99.90;;;;;;6154821;23;20036;-86
2022/01/24 12:40:47;;;;;;;38.50;24.17;;;6.00;99.90;;;;;;6154818;23;20443;-90
2022/01/24 12:43:28;;;;;;;36.28;22.13;;;6.10;99.90;;;;;;6155139;23;20026;-91
2022/01/24 12:48:38;;;;;;;34.88;21.85;;;6.00;99.90;;;;;;6156247;23;20100;-86
2022/01/24 12:51:04;;;;;;;34.60;21.90;;;6.00;99.90;;;;;;6154864;23;20057;-87
2022/01/24 12:53:38;;;;;;;33.80;21.52;;;6.00;99.90;;;;;;6156327;23;20022;-87
2022/01/24 12:56:07;;;;;;;33.35;21.20;;;6.00;99.90;;;;;;6154818;23;20080;-88
2022/01/24 12:58:35;;;;;;;33.70;21.85;;;6.00;99.90;;;;;;6155012;23;20021;-85
2022/01/24 13:01:15;;;;;;;33.60;21.25;;;6.00;99.90;;;;;;6154088;23;20028;-87
2022/01/24 13:03:49;;;;;;;36.53;22.33;;;6.00;99.90;;;;;;6154575;23;20060;-87
2022/01/24 13:06:16;;;;;;;35.53;22.60;;;6.00;99.90;;;;;;6154404;23;20052;-90
2022/01/24 13:09:02;;;;;;;33.33;20.85;;;6.00;99.90;;;;;;6153561;23;20033;-89
2022/01/24 13:11:30;;;;;;;36.13;23.48;;;5.90;99.90;;;;;;6128924;23;20352;-91
2022/01/24 13:14:11;;;;;;;36.28;23.75;;;5.90;99.90;;;;;;6154703;23;20021;-87
2022/01/24 13:25:04;;;;;;;33.05;21.98;;;5.90;99.90;;;;;;6154119;23;20420;-87
2022/01/24 13:27:40;;;;;;;32.45;21.08;;;5.90;99.90;;;;;;6154489;23;20029;-86
2022/01/24 13:30:10;;;;;;;30.98;21.55;;;5.90;99.90;;;;;;6154188;23;20030;-85
2022/01/24 13:32:50;;;;;;;32.08;21.63;;;5.90;99.90;;;;;;6154410;23;20060;-86
2022/01/24 13:35:27;;;;;;;36.83;22.83;;;5.90;99.90;;;;;;6156213;23;20113;-87
2022/01/24 13:38:09;;;;;;;34.35;22.20;;;6.00;99.90;;;;;;6154393;23;20025;-86
2022/01/24 13:41:03;;;;;;;32.88;20.98;;;6.00;99.90;;;;;;6154357;23;20029;-86
2022/01/24 13:43:39;;;;;;;32.83;20.27;;;6.00;99.90;;;;;;6154099;23;20064;-90
2022/01/24 13:46:27;;;;;;;29.75;20.15;;;5.90;99.90;;;;;;6155853;23;20028;-86
2022/01/24 13:49:16;;;;;;;29.70;20.52;;;5.90;99.90;;;;;;6155873;23;20025;-86
2022/01/24 13:51:46;;;;;;;33.47;21.80;;;5.90;99.90;;;;;;6154043;23;20032;-87
2022/01/24 13:54:18;;;;;;;39.05;22.73;;;5.90;99.90;;;;;;6155814;23;20175;-87
2022/01/24 13:56:49;;;;;;;35.30;23.10;;;5.90;99.90;;;;;;6153860;23;20366;-92
2022/01/24 13:59:27;;;;;;;33.17;21.67;;;5.90;99.90;;;;;;6154009;23;20026;-86
2022/01/24 14:02:00;;;;;;;36.92;21.75;;;5.90;99.90;;;;;;6154009;23;20348;-87
2022/01/24 14:04:41;;;;;;;33.50;22.40;;;5.80;99.90;;;;;;6154061;23;20491;-87
2022/01/24 14:07:12;;;;;;;33.70;22.77;;;5.90;99.90;;;;;;6155830;23;20021;-85
2022/01/24 14:09:46;;;;;;;32.92;22.20;;;5.80;99.90;;;;;;6129114;23;20104;-89
2022/01/24 14:12:18;;;;;;;34.40;22.35;;;5.80;99.90;;;;;;6154542;23;20023;-87
2022/01/24 14:14:53;;;;;;;33.13;20.58;;;5.90;99.90;;;;;;6131411;23;20017;-87
2022/01/24 14:17:35;;;;;;;32.40;21.05;;;5.80;99.90;;;;;;6155373;23;20029;-89
2022/01/24 14:20:11;;;;;;;32.25;21.33;;;5.80;99.90;;;;;;6154802;23;20017;-86
2022/01/24 14:22:43;;;;;;;32.08;21.00;;;5.80;99.90;;;;;;6153910;23;20378;-86
2022/01/24 14:25:35;;;;;;;32.92;22.20;;;5.80;99.90;;;;;;6153854;23;20017;-88
2022/01/24 14:28:09;;;;;;;31.02;20.67;;;5.80;99.90;;;;;;6128152;23;20022;-86
2022/01/24 14:30:43;;;;;;;31.90;21.10;;;5.80;99.90;;;;;;6129160;23;20351;-86
2022/01/24 14:33:12;;;;;;;33.80;21.58;;;5.80;99.90;;;;;;6129385;23;20024;-86
2022/01/24 14:36:12;;;;;;;31.50;20.35;;;5.80;99.90;;;;;;6128941;23;20026;-86
2022/01/24 14:39:01;;;;;;;33.28;21.80;;;5.80;99.90;;;;;;6128880;23;20018;-87
2022/01/24 14:41:30;;;;;;;34.38;21.30;;;5.80;99.90;;;;;;6128910;23;20383;-85
2022/01/24 14:46:44;;;;;;;34.35;22.00;;;5.80;99.90;;;;;;6153983;23;20030;-91
2022/01/24 14:49:23;;;;;;;32.35;20.88;;;5.80;99.90;;;;;;6128952;23;20095;-86
2022/01/24 14:51:50;;;;;;;30.25;19.35;;;5.70;99.90;;;;;;6129492;23;20030;-87
2022/01/24 14:54:24;;;;;;;34.13;20.60;;;5.80;99.90;;;;;;6153851;23;20057;-88
2022/01/24 14:56:52;;;;;;;34.50;22.38;;;5.80;99.90;;;;;;6128965;23;20032;-87
2022/01/24 14:59:19;;;;;;;32.67;20.10;;;5.80;99.90;;;;;;6153865;23;20478;-88
2022/01/24 15:01:46;;;;;;;36.30;22.33;;;5.70;99.90;;;;;;6128962;23;20100;-87
2022/01/24 15:04:11;;;;;;;33.47;21.50;;;5.70;99.90;;;;;;6129399;23;20093;-86
2022/01/24 15:06:38;;;;;;;33.13;21.53;;;5.70;99.90;;;;;;6153861;23;20080;-87
2022/01/24 15:09:17;;;;;;;33.85;21.52;;;5.70;99.90;;;;;;6154803;23;20065;-87
2022/01/24 15:11:45;;;;;;;36.55;22.35;;;5.70;99.90;;;;;;6157106;23;20029;-86
2022/01/24 15:14:18;;;;;;;34.70;21.60;;;5.80;99.90;;;;;;6155716;23;20021;-85
2022/01/24 15:16:56;;;;;;;42.83;26.85;;;5.70;99.90;;;;;;6155677;23;20351;-88
2022/01/24 15:27:37;;;;;;;37.08;22.90;;;5.70;99.90;;;;;;6155541;23;20025;-87
2022/01/24 15:30:05;;;;;;;33.22;21.15;;;5.70;99.90;;;;;;6130659;23;20025;-87
2022/01/24 15:32:31;;;;;;;34.63;22.58;;;5.70;99.90;;;;;;6130516;23;20018;-89
2022/01/24 15:34:57;;;;;;;35.67;22.60;;;5.70;99.90;;;;;;6155160;23;20022;-87
2022/01/24 15:37:22;;;;;;;36.80;23.20;;;5.70;99.90;;;;;;6130867;23;20049;-88
2022/01/24 15:39:48;;;;;;;36.87;23.33;;;5.70;99.90;;;;;;6155575;23;20478;-88
2022/01/24 15:42:21;;;;;;;39.00;25.07;;;5.70;99.90;;;;;;6155750;23;20026;-88
2022/01/24 15:49:46;;;;;;;82.93;43.45;;;5.70;99.90;;;;;;6154978;23;20028;-91
2022/01/24 15:52:13;;;;;;;40.08;24.80;;;5.70;99.90;;;;;;6130515;23;20478;-88
2022/01/24 15:54:42;;;;;;;46.90;28.05;;;5.70;99.90;;;;;;6155025;23;20026;-89
2022/01/24 15:59:53;;;;;;;40.58;26.92;;;5.70;99.90;;;;;;6155692;23;20021;-91
2022/01/24 16:02:18;;;;;;;42.63;26.77;;;5.70;99.90;;;;;;6155434;23;20371;-93
2022/01/24 16:04:44;;;;;;;48.20;29.90;;;5.60;99.90;;;;;;6156217;23;20022;-88
2022/01/24 16:07:10;;;;;;;40.47;25.03;;;5.60;99.90;;;;;;6155862;23;20018;-90
2022/01/24 16:09:36;;;;;;;46.03;26.97;;;5.60;99.90;;;;;;6155388;23;20111;-89